sensor_id;sensor_type;location;lat;lon;timestamp;pressure;altitude;pressure_sealevel;temperature;humidity
50310;BME280;36207;51.850;21.698;2023-02-20T00:01:30;99977.55;;;0.52;69.49
50310;BME280;36207;51.850;21.698;2023-02-20T00:03:57;99978.05;;;0.54;69.44
50310;BME280;36207;51.850;21.698;2023-02-20T00:06:23;99975.52;;;0.56;69.41
50310;BME280;36207;51.850;21.698;2023-02-20T00:08:49;99970.23;;;0.56;69.47
50310;BME280;36207;51.850;21.698;2023-02-20T00:11:15;99974.56;;;0.57;69.60
50310;BME280;36207;51.850;21.698;2023-02-20T00:13:45;99977.88;;;0.57;69.65
50310;BME280;36207;51.850;21.698;2023-02-20T00:16:11;99981.44;;;0.56;69.61
50310;BME280;36207;51.850;21.698;2023-02-20T00:18:37;99976.19;;;0.56;69.79
50310;BME280;36207;51.850;21.698;2023-02-20T00:21:04;99971.21;;;0.57;69.70
50310;BME280;36207;51.850;21.698;2023-02-20T00:23:34;99975.42;;;0.59;70.09
50310;BME280;36207;51.850;21.698;2023-02-20T00:26:00;99968.41;;;0.61;70.13
50310;BME280;36207;51.850;21.698;2023-02-20T00:28:26;99968.79;;;0.63;70.27
50310;BME280;36207;51.850;21.698;2023-02-20T00:30:52;99962.70;;;0.63;70.67
50310;BME280;36207;51.850;21.698;2023-02-20T00:33:18;99958.44;;;0.61;71.55
50310;BME280;36207;51.850;21.698;2023-02-20T00:35:43;99964.27;;;0.61;72.22
50310;BME280;36207;51.850;21.698;2023-02-20T00:38:09;99962.85;;;0.61;72.82
50310;BME280;36207;51.850;21.698;2023-02-20T00:40:35;99962.80;;;0.59;73.46
50310;BME280;36207;51.850;21.698;2023-02-20T00:43:01;99968.73;;;0.60;73.85
50310;BME280;36207;51.850;21.698;2023-02-20T00:45:27;99972.15;;;0.58;74.97
50310;BME280;36207;51.850;21.698;2023-02-20T00:47:53;99967.65;;;0.55;75.39
50310;BME280;36207;51.850;21.698;2023-02-20T00:50:19;99959.90;;;0.54;75.96
50310;BME280;36207;51.850;21.698;2023-02-20T00:52:45;99962.36;;;0.51;75.96
50310;BME280;36207;51.850;21.698;2023-02-20T00:55:12;99965.58;;;0.50;76.40
50310;BME280;36207;51.850;21.698;2023-02-20T00:57:38;99963.20;;;0.47;76.75
50310;BME280;36207;51.850;21.698;2023-02-20T01:00:06;99958.74;;;0.46;76.30
50310;BME280;36207;51.850;21.698;2023-02-20T01:02:33;99955.55;;;0.46;76.36
50310;BME280;36207;51.850;21.698;2023-02-20T01:04:58;99954.09;;;0.47;76.37
50310;BME280;36207;51.850;21.698;2023-02-20T01:07:24;99949.59;;;0.46;76.66
50310;BME280;36207;51.850;21.698;2023-02-20T01:09:50;99948.95;;;0.46;76.62
50310;BME280;36207;51.850;21.698;2023-02-20T01:12:16;99948.16;;;0.47;76.45
50310;BME280;36207;51.850;21.698;2023-02-20T01:14:42;99946.67;;;0.48;76.89
50310;BME280;36207;51.850;21.698;2023-02-20T01:17:08;99950.88;;;0.48;76.83
50310;BME280;36207;51.850;21.698;2023-02-20T01:19:34;99948.25;;;0.48;76.63
50310;BME280;36207;51.850;21.698;2023-02-20T01:22:00;99944.35;;;0.49;76.59
50310;BME280;36207;51.850;21.698;2023-02-20T01:24:27;99941.47;;;0.49;76.69
50310;BME280;36207;51.850;21.698;2023-02-20T01:26:53;99942.20;;;0.51;76.48
50310;BME280;36207;51.850;21.698;2023-02-20T01:29:19;99940.84;;;0.53;76.42
50310;BME280;36207;51.850;21.698;2023-02-20T01:31:47;99939.58;;;0.54;76.40
50310;BME280;36207;51.850;21.698;2023-02-20T01:34:13;99936.71;;;0.55;76.33
50310;BME280;36207;51.850;21.698;2023-02-20T01:36:44;99932.45;;;0.56;76.19
50310;BME280;36207;51.850;21.698;2023-02-20T01:39:10;99931.80;;;0.57;76.19
50310;BME280;36207;51.850;21.698;2023-02-20T01:41:37;99933.69;;;0.60;75.90
50310;BME280;36207;51.850;21.698;2023-02-20T01:44:02;99927.98;;;0.61;75.78
50310;BME280;36207;51.850;21.698;2023-02-20T01:51:26;99929.84;;;0.64;75.36
50310;BME280;36207;51.850;21.698;2023-02-20T01:53:54;99931.09;;;0.66;75.14
50310;BME280;36207;51.850;21.698;2023-02-20T01:56:20;99935.38;;;0.70;75.28
50310;BME280;36207;51.850;21.698;2023-02-20T01:58:48;99930.73;;;0.71;74.89
50310;BME280;36207;51.850;21.698;2023-02-20T02:01:15;99929.16;;;0.71;74.84
50310;BME280;36207;51.850;21.698;2023-02-20T02:03:43;99931.95;;;0.71;74.51
50310;BME280;36207;51.850;21.698;2023-02-20T02:06:12;99930.26;;;0.70;74.50
50310;BME280;36207;51.850;21.698;2023-02-20T02:08:41;99926.63;;;0.72;74.52
50310;BME280;36207;51.850;21.698;2023-02-20T02:11:20;99920.17;;;0.73;74.03
50310;BME280;36207;51.850;21.698;2023-02-20T02:13:47;99920.67;;;0.76;73.97
50310;BME280;36207;51.850;21.698;2023-02-20T02:35:47;99901.52;;;0.81;73.29
50310;BME280;36207;51.850;21.698;2023-02-20T02:38:35;99898.23;;;0.80;73.19
50310;BME280;36207;51.850;21.698;2023-02-20T02:41:14;99901.05;;;0.81;73.17
50310;BME280;36207;51.850;21.698;2023-02-20T02:43:59;99900.34;;;0.81;72.77
50310;BME280;36207;51.850;21.698;2023-02-20T02:49:43;99905.77;;;0.85;73.23
50310;BME280;36207;51.850;21.698;2023-02-20T02:52:11;99901.67;;;0.86;72.62
50310;BME280;36207;51.850;21.698;2023-02-20T02:54:58;99898.22;;;0.87;72.80
50310;BME280;36207;51.850;21.698;2023-02-20T02:57:25;99897.72;;;0.87;72.72
50310;BME280;36207;51.850;21.698;2023-02-20T02:59:58;99902.15;;;0.89;72.53
50310;BME280;36207;51.850;21.698;2023-02-20T03:02:29;99903.30;;;0.92;72.63
50310;BME280;36207;51.850;21.698;2023-02-20T03:04:57;99904.42;;;0.96;72.75
50310;BME280;36207;51.850;21.698;2023-02-20T03:07:26;99900.95;;;0.98;72.54
50310;BME280;36207;51.850;21.698;2023-02-20T03:09:58;99900.23;;;1.00;72.73
50310;BME280;36207;51.850;21.698;2023-02-20T03:12:25;99904.89;;;1.01;72.42
50310;BME280;36207;51.850;21.698;2023-02-20T03:14:58;99909.50;;;1.02;72.66
50310;BME280;36207;51.850;21.698;2023-02-20T03:17:57;99910.14;;;1.03;72.58
50310;BME280;36207;51.850;21.698;2023-02-20T03:20:26;99910.14;;;1.06;72.56
50310;BME280;36207;51.850;21.698;2023-02-20T03:22:55;99904.20;;;1.07;72.54
50310;BME280;36207;51.850;21.698;2023-02-20T03:25:26;99903.52;;;1.09;72.57
50310;BME280;36207;51.850;21.698;2023-02-20T03:27:58;99908.36;;;1.10;72.64
50310;BME280;36207;51.850;21.698;2023-02-20T03:30:49;99908.29;;;1.11;72.63
50310;BME280;36207;51.850;21.698;2023-02-20T03:33:31;99912.66;;;1.11;72.56
50310;BME280;36207;51.850;21.698;2023-02-20T03:36:29;99905.27;;;1.14;72.64
50310;BME280;36207;51.850;21.698;2023-02-20T03:39:22;99905.95;;;1.17;72.50
50310;BME280;36207;51.850;21.698;2023-02-20T03:42:11;99906.76;;;1.20;72.58
50310;BME280;36207;51.850;21.698;2023-02-20T03:44:59;99901.15;;;1.22;72.68
50310;BME280;36207;51.850;21.698;2023-02-20T03:47:26;99897.44;;;1.22;72.51
50310;BME280;36207;51.850;21.698;2023-02-20T03:49:54;99895.42;;;1.23;72.55
50310;BME280;36207;51.850;21.698;2023-02-20T03:52:21;99895.48;;;1.25;72.62
50310;BME280;36207;51.850;21.698;2023-02-20T03:54:48;99895.66;;;1.27;72.63
50310;BME280;36207;51.850;21.698;2023-02-20T03:57:18;99893.80;;;1.30;72.72
50310;BME280;36207;51.850;21.698;2023-02-20T03:59:50;99898.84;;;1.33;72.46
50310;BME280;36207;51.850;21.698;2023-02-20T04:02:30;99900.02;;;1.36;72.41
50310;BME280;36207;51.850;21.698;2023-02-20T04:05:00;99895.28;;;1.38;72.31
50310;BME280;36207;51.850;21.698;2023-02-20T04:07:45;99888.71;;;1.39;72.31
50310;BME280;36207;51.850;21.698;2023-02-20T04:10:18;99892.22;;;1.39;72.30
50310;BME280;36207;51.850;21.698;2023-02-20T04:12:46;99895.33;;;1.40;72.30
50310;BME280;36207;51.850;21.698;2023-02-20T04:15:15;99893.27;;;1.42;72.16
50310;BME280;36207;51.850;21.698;2023-02-20T04:17:46;99889.63;;;1.43;71.99
50310;BME280;36207;51.850;21.698;2023-02-20T04:20:15;99889.27;;;1.46;71.98
50310;BME280;36207;51.850;21.698;2023-02-20T04:22:44;99884.84;;;1.46;72.15
50310;BME280;36207;51.850;21.698;2023-02-20T04:25:23;99884.67;;;1.46;72.22
50310;BME280;36207;51.850;21.698;2023-02-20T04:27:52;99884.34;;;1.46;72.09
50310;BME280;36207;51.850;21.698;2023-02-20T04:30:18;99885.56;;;1.46;72.20
50310;BME280;36207;51.850;21.698;2023-02-20T04:32:44;99890.77;;;1.46;71.98
50310;BME280;36207;51.850;21.698;2023-02-20T04:35:16;99882.63;;;1.47;71.87
50310;BME280;36207;51.850;21.698;2023-02-20T04:37:42;99874.81;;;1.48;71.84
50310;BME280;36207;51.850;21.698;2023-02-20T04:40:10;99873.76;;;1.48;72.00
50310;BME280;36207;51.850;21.698;2023-02-20T04:42:36;99868.64;;;1.47;71.49
50310;BME280;36207;51.850;21.698;2023-02-20T04:45:02;99873.38;;;1.47;71.79
50310;BME280;36207;51.850;21.698;2023-02-20T04:47:28;99865.23;;;1.45;71.83
50310;BME280;36207;51.850;21.698;2023-02-20T04:49:54;99864.99;;;1.42;71.62
50310;BME280;36207;51.850;21.698;2023-02-20T04:52:20;99859.09;;;1.41;71.67
50310;BME280;36207;51.850;21.698;2023-02-20T04:54:46;99854.34;;;1.41;71.64
50310;BME280;36207;51.850;21.698;2023-02-20T04:57:13;99858.44;;;1.41;71.56
50310;BME280;36207;51.850;21.698;2023-02-20T04:59:39;99861.73;;;1.39;71.50
50310;BME280;36207;51.850;21.698;2023-02-20T05:02:05;99861.48;;;1.35;71.50
50310;BME280;36207;51.850;21.698;2023-02-20T05:04:30;99862.69;;;1.31;71.50
50310;BME280;36207;51.850;21.698;2023-02-20T05:06:57;99861.11;;;1.29;71.66
50310;BME280;36207;51.850;21.698;2023-02-20T05:09:23;99862.50;;;1.25;71.64
50310;BME280;36207;51.850;21.698;2023-02-20T05:11:49;99857.91;;;1.21;71.71
50310;BME280;36207;51.850;21.698;2023-02-20T05:14:16;99860.09;;;1.18;71.68
50310;BME280;36207;51.850;21.698;2023-02-20T05:16:42;99861.88;;;1.15;71.65
50310;BME280;36207;51.850;21.698;2023-02-20T05:19:10;99866.05;;;1.11;71.62
50310;BME280;36207;51.850;21.698;2023-02-20T05:21:36;99864.48;;;1.06;71.51
50310;BME280;36207;51.850;21.698;2023-02-20T05:24:21;99860.41;;;1.03;71.43
50310;BME280;36207;51.850;21.698;2023-02-20T05:26:48;99857.55;;;0.97;71.42
50310;BME280;36207;51.850;21.698;2023-02-20T05:29:14;99854.27;;;0.92;71.55
50310;BME280;36207;51.850;21.698;2023-02-20T05:31:40;99853.73;;;0.87;71.71
50310;BME280;36207;51.850;21.698;2023-02-20T05:34:07;99856.68;;;0.83;71.68
50310;BME280;36207;51.850;21.698;2023-02-20T05:36:34;99850.69;;;0.81;71.95
50310;BME280;36207;51.850;21.698;2023-02-20T05:38:59;99855.00;;;0.80;71.86
50310;BME280;36207;51.850;21.698;2023-02-20T05:41:25;99853.31;;;0.79;72.03
50310;BME280;36207;51.850;21.698;2023-02-20T05:43:51;99849.52;;;0.78;72.12
50310;BME280;36207;51.850;21.698;2023-02-20T05:46:23;99853.08;;;0.78;72.24
50310;BME280;36207;51.850;21.698;2023-02-20T05:48:51;99855.23;;;0.77;72.34
50310;BME280;36207;51.850;21.698;2023-02-20T05:51:24;99849.36;;;0.74;72.34
50310;BME280;36207;51.850;21.698;2023-02-20T05:53:50;99846.83;;;0.75;72.48
50310;BME280;36207;51.850;21.698;2023-02-20T05:56:17;99843.30;;;0.75;72.64
50310;BME280;36207;51.850;21.698;2023-02-20T05:58:44;99839.75;;;0.76;72.71
50310;BME280;36207;51.850;21.698;2023-02-20T06:01:36;99834.98;;;0.76;72.70
50310;BME280;36207;51.850;21.698;2023-02-20T06:04:03;99834.15;;;0.76;72.71
50310;BME280;36207;51.850;21.698;2023-02-20T06:06:47;99836.09;;;0.76;72.76
50310;BME280;36207;51.850;21.698;2023-02-20T06:09:13;99829.10;;;0.75;73.02
50310;BME280;36207;51.850;21.698;2023-02-20T06:11:53;99821.94;;;0.75;73.03
50310;BME280;36207;51.850;21.698;2023-02-20T06:14:21;99818.12;;;0.77;73.12
50310;BME280;36207;51.850;21.698;2023-02-20T06:16:47;99816.84;;;0.79;73.21
50310;BME280;36207;51.850;21.698;2023-02-20T06:19:21;99817.23;;;0.81;73.22
50310;BME280;36207;51.850;21.698;2023-02-20T06:21:49;99816.66;;;0.82;73.25
50310;BME280;36207;51.850;21.698;2023-02-20T06:24:16;99819.27;;;0.82;73.28
50310;BME280;36207;51.850;21.698;2023-02-20T06:26:43;99818.27;;;0.83;73.27
50310;BME280;36207;51.850;21.698;2023-02-20T06:29:10;99816.52;;;0.86;73.32
50310;BME280;36207;51.850;21.698;2023-02-20T06:31:36;99821.33;;;0.89;73.41
50310;BME280;36207;51.850;21.698;2023-02-20T06:34:02;99821.11;;;0.92;73.43
50310;BME280;36207;51.850;21.698;2023-02-20T06:36:34;99812.66;;;0.95;73.47
50310;BME280;36207;51.850;21.698;2023-02-20T06:39:02;99807.65;;;0.96;73.52
50310;BME280;36207;51.850;21.698;2023-02-20T06:41:28;99808.36;;;0.98;73.46
50310;BME280;36207;51.850;21.698;2023-02-20T06:43:54;99810.52;;;1.02;73.53
50310;BME280;36207;51.850;21.698;2023-02-20T06:46:21;99808.07;;;1.08;73.55
50310;BME280;36207;51.850;21.698;2023-02-20T06:48:49;99806.05;;;1.16;73.58
50310;BME280;36207;51.850;21.698;2023-02-20T06:51:30;99803.17;;;1.23;73.25
50310;BME280;36207;51.850;21.698;2023-02-20T06:53:57;99802.13;;;1.30;73.38
50310;BME280;36207;51.850;21.698;2023-02-20T06:56:26;99800.13;;;1.37;73.40
50310;BME280;36207;51.850;21.698;2023-02-20T06:58:53;99795.23;;;1.48;73.48
50310;BME280;36207;51.850;21.698;2023-02-20T07:01:21;99795.71;;;1.59;72.99
50310;BME280;36207;51.850;21.698;2023-02-20T07:03:48;99788.23;;;1.68;72.73
50310;BME280;36207;51.850;21.698;2023-02-20T07:06:16;99782.63;;;1.77;72.69
50310;BME280;36207;51.850;21.698;2023-02-20T07:08:42;99775.77;;;1.81;72.28
50310;BME280;36207;51.850;21.698;2023-02-20T07:11:08;99777.71;;;1.79;72.12
50310;BME280;36207;51.850;21.698;2023-02-20T07:13:34;99777.58;;;1.78;72.34
50310;BME280;36207;51.850;21.698;2023-02-20T07:16:00;99773.95;;;1.77;72.37
50310;BME280;36207;51.850;21.698;2023-02-20T07:18:26;99783.28;;;1.79;72.23
50310;BME280;36207;51.850;21.698;2023-02-20T07:20:53;99782.33;;;1.83;72.19
50310;BME280;36207;51.850;21.698;2023-02-20T07:23:19;99787.07;;;1.83;72.23
50310;BME280;36207;51.850;21.698;2023-02-20T07:25:45;99781.27;;;1.80;72.08
50310;BME280;36207;51.850;21.698;2023-02-20T07:28:13;99773.09;;;1.77;72.23
50310;BME280;36207;51.850;21.698;2023-02-20T07:30:39;99765.79;;;1.74;72.37
50310;BME280;36207;51.850;21.698;2023-02-20T07:33:05;99763.73;;;1.72;72.39
50310;BME280;36207;51.850;21.698;2023-02-20T07:35:31;99762.61;;;1.71;72.65
50310;BME280;36207;51.850;21.698;2023-02-20T07:37:57;99759.76;;;1.71;72.49
50310;BME280;36207;51.850;21.698;2023-02-20T07:40:23;99753.02;;;1.74;72.49
50310;BME280;36207;51.850;21.698;2023-02-20T07:42:48;99754.89;;;1.83;72.43
50310;BME280;36207;51.850;21.698;2023-02-20T07:45:14;99751.88;;;1.96;72.56
50310;BME280;36207;51.850;21.698;2023-02-20T07:47:40;99753.44;;;2.06;72.17
50310;BME280;36207;51.850;21.698;2023-02-20T07:50:06;99756.83;;;2.16;72.04
50310;BME280;36207;51.850;21.698;2023-02-20T07:52:32;99753.14;;;2.26;71.69
50310;BME280;36207;51.850;21.698;2023-02-20T07:54:58;99747.05;;;2.38;71.76
50310;BME280;36207;51.850;21.698;2023-02-20T07:57:23;99747.20;;;2.50;71.57
50310;BME280;36207;51.850;21.698;2023-02-20T07:59:49;99744.44;;;2.59;70.90
50310;BME280;36207;51.850;21.698;2023-02-20T08:02:15;99746.54;;;2.66;70.82
50310;BME280;36207;51.850;21.698;2023-02-20T08:04:41;99748.88;;;2.77;71.01
50310;BME280;36207;51.850;21.698;2023-02-20T08:07:07;99740.77;;;2.85;70.35
50310;BME280;36207;51.850;21.698;2023-02-20T08:09:33;99727.02;;;2.86;70.16
50310;BME280;36207;51.850;21.698;2023-02-20T08:11:59;99721.70;;;2.84;70.25
50310;BME280;36207;51.850;21.698;2023-02-20T08:14:25;99709.98;;;2.83;70.50
50310;BME280;36207;51.850;21.698;2023-02-20T08:16:53;99704.41;;;2.83;70.36
50310;BME280;36207;51.850;21.698;2023-02-20T08:19:19;99702.93;;;2.80;70.56
50310;BME280;36207;51.850;21.698;2023-02-20T08:21:45;99702.18;;;2.78;70.99
50310;BME280;36207;51.850;21.698;2023-02-20T08:24:10;99696.02;;;2.75;70.64
50310;BME280;36207;51.850;21.698;2023-02-20T08:26:47;99693.42;;;2.70;70.94
50310;BME280;36207;51.850;21.698;2023-02-20T08:29:13;99690.04;;;2.68;71.17
50310;BME280;36207;51.850;21.698;2023-02-20T08:31:40;99691.65;;;2.68;71.56
50310;BME280;36207;51.850;21.698;2023-02-20T08:34:06;99684.34;;;2.67;71.51
50310;BME280;36207;51.850;21.698;2023-02-20T08:36:32;99680.96;;;2.66;71.69
50310;BME280;36207;51.850;21.698;2023-02-20T08:38:57;99678.52;;;2.66;71.85
50310;BME280;36207;51.850;21.698;2023-02-20T08:41:25;99671.64;;;2.66;71.98
50310;BME280;36207;51.850;21.698;2023-02-20T08:43:51;99671.70;;;2.67;72.18
50310;BME280;36207;51.850;21.698;2023-02-20T08:46:17;99675.58;;;2.67;72.39
50310;BME280;36207;51.850;21.698;2023-02-20T08:48:43;99667.20;;;2.66;72.50
50310;BME280;36207;51.850;21.698;2023-02-20T08:51:10;99659.67;;;2.66;72.36
50310;BME280;36207;51.850;21.698;2023-02-20T08:53:38;99657.82;;;2.69;72.87
50310;BME280;36207;51.850;21.698;2023-02-20T08:56:07;99653.44;;;2.73;72.96
50310;BME280;36207;51.850;21.698;2023-02-20T08:58:34;99642.31;;;2.77;72.91
50310;BME280;36207;51.850;21.698;2023-02-20T09:01:00;99642.36;;;2.83;72.97
50310;BME280;36207;51.850;21.698;2023-02-20T09:03:25;99632.84;;;2.87;72.87
50310;BME280;36207;51.850;21.698;2023-02-20T09:05:51;99628.59;;;2.91;72.96
50310;BME280;36207;51.850;21.698;2023-02-20T09:08:17;99628.82;;;2.96;72.82
50310;BME280;36207;51.850;21.698;2023-02-20T09:10:48;99627.89;;;3.01;72.89
50310;BME280;36207;51.850;21.698;2023-02-20T09:13:14;99621.20;;;3.05;73.10
50310;BME280;36207;51.850;21.698;2023-02-20T09:15:40;99612.83;;;3.06;72.93
50310;BME280;36207;51.850;21.698;2023-02-20T09:18:07;99606.36;;;3.07;73.44
50310;BME280;36207;51.850;21.698;2023-02-20T09:20:36;99596.70;;;3.07;73.50
50310;BME280;36207;51.850;21.698;2023-02-20T09:23:04;99586.45;;;3.08;73.68
50310;BME280;36207;51.850;21.698;2023-02-20T09:25:30;99577.94;;;3.04;74.09
50310;BME280;36207;51.850;21.698;2023-02-20T09:27:56;99566.80;;;3.01;74.18
50310;BME280;36207;51.850;21.698;2023-02-20T09:30:23;99561.73;;;2.99;74.58
50310;BME280;36207;51.850;21.698;2023-02-20T09:32:49;99554.93;;;2.97;75.07
50310;BME280;36207;51.850;21.698;2023-02-20T09:35:17;99547.19;;;2.93;76.01
50310;BME280;36207;51.850;21.698;2023-02-20T09:37:44;99539.50;;;2.86;76.86
50310;BME280;36207;51.850;21.698;2023-02-20T09:40:11;99536.55;;;2.81;76.96
50310;BME280;36207;51.850;21.698;2023-02-20T09:45:52;99538.81;;;2.77;77.85
50310;BME280;36207;51.850;21.698;2023-02-20T09:51:04;99531.67;;;2.72;78.72
50310;BME280;36207;51.850;21.698;2023-02-20T09:53:38;99521.41;;;2.73;78.61
50310;BME280;36207;51.850;21.698;2023-02-20T09:56:18;99514.02;;;2.73;79.31
50310;BME280;36207;51.850;21.698;2023-02-20T09:58:54;99510.14;;;2.69;79.86
50310;BME280;36207;51.850;21.698;2023-02-20T10:01:24;99499.08;;;2.68;80.06
50310;BME280;36207;51.850;21.698;2023-02-20T10:04:08;99495.20;;;2.68;80.36
50310;BME280;36207;51.850;21.698;2023-02-20T10:06:36;99483.64;;;2.67;80.86
50310;BME280;36207;51.850;21.698;2023-02-20T10:09:03;99467.25;;;2.66;80.93
50310;BME280;36207;51.850;21.698;2023-02-20T10:11:47;99451.77;;;2.66;80.91
50310;BME280;36207;51.850;21.698;2023-02-20T10:25:43;99420.48;;;2.68;82.09
50310;BME280;36207;51.850;21.698;2023-02-20T10:28:14;99409.49;;;2.69;82.31
50310;BME280;36207;51.850;21.698;2023-02-20T10:33:37;99386.44;;;2.67;82.76
50310;BME280;36207;51.850;21.698;2023-02-20T10:36:18;99369.20;;;2.67;83.08
50310;BME280;36207;51.850;21.698;2023-02-20T10:39:04;99360.02;;;2.68;82.35
50310;BME280;36207;51.850;21.698;2023-02-20T10:44:32;99335.05;;;2.66;82.23
50310;BME280;36207;51.850;21.698;2023-02-20T10:47:12;99329.61;;;2.64;81.88
50310;BME280;36207;51.850;21.698;2023-02-20T10:52:19;99310.39;;;2.56;82.13
50310;BME280;36207;51.850;21.698;2023-02-20T10:55:10;99307.73;;;2.49;82.64
50310;BME280;36207;51.850;21.698;2023-02-20T10:57:48;99299.92;;;2.44;82.71
50310;BME280;36207;51.850;21.698;2023-02-20T11:00:22;99298.40;;;2.40;83.48
50310;BME280;36207;51.850;21.698;2023-02-20T11:02:57;99290.28;;;2.34;84.01
50310;BME280;36207;51.850;21.698;2023-02-20T11:05:27;99290.33;;;2.30;84.16
50310;BME280;36207;51.850;21.698;2023-02-20T11:07:55;99291.83;;;2.27;84.63
50310;BME280;36207;51.850;21.698;2023-02-20T11:10:21;99302.63;;;2.22;85.05
50310;BME280;36207;51.850;21.698;2023-02-20T11:12:50;99302.89;;;2.19;84.88
50310;BME280;36207;51.850;21.698;2023-02-20T11:15:29;99288.84;;;2.17;84.78
50310;BME280;36207;51.850;21.698;2023-02-20T11:17:57;99285.48;;;2.16;85.35
50310;BME280;36207;51.850;21.698;2023-02-20T11:22:57;99275.23;;;2.11;85.43
50310;BME280;36207;51.850;21.698;2023-02-20T11:25:31;99269.45;;;2.11;85.50
50310;BME280;36207;51.850;21.698;2023-02-20T11:28:23;99258.36;;;2.11;85.84
50310;BME280;36207;51.850;21.698;2023-02-20T11:31:17;99246.73;;;2.11;86.05
50310;BME280;36207;51.850;21.698;2023-02-20T11:33:46;99237.64;;;2.11;86.33
50310;BME280;36207;51.850;21.698;2023-02-20T11:36:17;99228.02;;;2.13;86.13
50310;BME280;36207;51.850;21.698;2023-02-20T11:38:46;99218.50;;;2.15;86.41
50310;BME280;36207;51.850;21.698;2023-02-20T11:41:34;99218.86;;;2.15;86.54
50310;BME280;36207;51.850;21.698;2023-02-20T11:46:30;99198.38;;;2.14;86.60
50310;BME280;36207;51.850;21.698;2023-02-20T11:51:36;99177.23;;;2.13;86.77
50310;BME280;36207;51.850;21.698;2023-02-20T11:59:39;99150.14;;;2.08;86.68
50310;BME280;36207;51.850;21.698;2023-02-20T12:04:41;99121.26;;;2.05;86.90
50310;BME280;36207;51.850;21.698;2023-02-20T12:09:48;99064.05;;;2.07;86.22
50310;BME280;36207;51.850;21.698;2023-02-20T12:12:15;99054.27;;;2.08;86.34
50310;BME280;36207;51.850;21.698;2023-02-20T12:14:41;99029.98;;;2.11;86.11
50310;BME280;36207;51.850;21.698;2023-02-20T12:17:36;99047.48;;;2.13;87.33
50310;BME280;36207;51.850;21.698;2023-02-20T12:20:20;99049.96;;;2.15;87.74
50310;BME280;36207;51.850;21.698;2023-02-20T12:23:00;99044.98;;;2.17;87.70
50310;BME280;36207;51.850;21.698;2023-02-20T12:28:55;99019.84;;;2.26;88.40
50310;BME280;36207;51.850;21.698;2023-02-20T12:31:45;99019.85;;;2.30;88.79
50310;BME280;36207;51.850;21.698;2023-02-20T12:34:43;98999.81;;;2.35;88.38
50310;BME280;36207;51.850;21.698;2023-02-20T12:43:34;98983.35;;;2.49;89.28
50310;BME280;36207;51.850;21.698;2023-02-20T12:46:23;98963.16;;;2.54;89.31
50310;BME280;36207;51.850;21.698;2023-02-20T12:49:17;98958.06;;;2.59;89.37
50310;BME280;36207;51.850;21.698;2023-02-20T12:52:19;98942.49;;;2.65;89.81
50310;BME280;36207;51.850;21.698;2023-02-20T12:55:02;98930.78;;;2.74;89.93
50310;BME280;36207;51.850;21.698;2023-02-20T12:57:41;98918.92;;;2.80;89.90
50310;BME280;36207;51.850;21.698;2023-02-20T13:00:37;98884.00;;;2.88;90.12
50310;BME280;36207;51.850;21.698;2023-02-20T13:03:09;98857.02;;;2.96;89.88
50310;BME280;36207;51.850;21.698;2023-02-20T13:05:40;98837.95;;;3.01;89.98
50310;BME280;36207;51.850;21.698;2023-02-20T13:08:13;98834.42;;;3.08;90.01
50310;BME280;36207;51.850;21.698;2023-02-20T13:13:09;98824.58;;;3.25;90.25
50310;BME280;36207;51.850;21.698;2023-02-20T13:16:06;98824.10;;;3.30;90.58
50310;BME280;36207;51.850;21.698;2023-02-20T13:21:30;98826.50;;;3.44;90.43
50310;BME280;36207;51.850;21.698;2023-02-20T13:24:31;98826.79;;;3.49;90.48
50310;BME280;36207;51.850;21.698;2023-02-20T13:27:02;98833.58;;;3.56;90.39
50310;BME280;36207;51.850;21.698;2023-02-20T13:29:33;98843.45;;;3.63;90.48
50310;BME280;36207;51.850;21.698;2023-02-20T13:32:21;98850.55;;;3.69;90.07
50310;BME280;36207;51.850;21.698;2023-02-20T13:34:49;98859.02;;;3.75;90.10
50310;BME280;36207;51.850;21.698;2023-02-20T13:42:43;98855.09;;;3.89;89.63
50310;BME280;36207;51.850;21.698;2023-02-20T13:45:35;98850.64;;;3.93;89.67
50310;BME280;36207;51.850;21.698;2023-02-20T13:53:45;98854.30;;;4.01;89.59
50310;BME280;36207;51.850;21.698;2023-02-20T13:56:17;98853.14;;;4.04;89.35
50310;BME280;36207;51.850;21.698;2023-02-20T13:58:44;98854.23;;;4.07;89.22
50310;BME280;36207;51.850;21.698;2023-02-20T14:01:10;98848.77;;;4.09;89.41
50310;BME280;36207;51.850;21.698;2023-02-20T14:03:37;98845.17;;;4.11;89.40
50310;BME280;36207;51.850;21.698;2023-02-20T14:06:05;98838.95;;;4.13;89.44
50310;BME280;36207;51.850;21.698;2023-02-20T14:08:32;98831.36;;;4.16;89.09
50310;BME280;36207;51.850;21.698;2023-02-20T14:11:05;98815.41;;;4.19;89.27
50310;BME280;36207;51.850;21.698;2023-02-20T14:13:33;98823.55;;;4.23;89.20
50310;BME280;36207;51.850;21.698;2023-02-20T14:16:00;98838.42;;;4.26;89.45
50310;BME280;36207;51.850;21.698;2023-02-20T14:21:16;98825.39;;;4.32;89.26
50310;BME280;36207;51.850;21.698;2023-02-20T14:23:44;98820.84;;;4.35;89.01
50310;BME280;36207;51.850;21.698;2023-02-20T14:28:49;98809.48;;;4.44;88.68
50310;BME280;36207;51.850;21.698;2023-02-20T14:31:32;98814.08;;;4.47;88.61
50310;BME280;36207;51.850;21.698;2023-02-20T14:34:06;98804.21;;;4.50;88.51
50310;BME280;36207;51.850;21.698;2023-02-20T14:39:56;98793.74;;;4.59;88.17
50310;BME280;36207;51.850;21.698;2023-02-20T14:42:21;98776.52;;;4.61;88.03
50310;BME280;36207;51.850;21.698;2023-02-20T14:45:10;98766.75;;;4.65;87.91
50310;BME280;36207;51.850;21.698;2023-02-20T14:47:52;98762.70;;;4.68;87.72
50310;BME280;36207;51.850;21.698;2023-02-20T14:50:23;98759.75;;;4.71;87.49
50310;BME280;36207;51.850;21.698;2023-02-20T14:53:13;98751.38;;;4.74;87.46
50310;BME280;36207;51.850;21.698;2023-02-20T14:55:39;98748.81;;;4.76;87.51
50310;BME280;36207;51.850;21.698;2023-02-20T14:58:06;98744.48;;;4.78;87.31
50310;BME280;36207;51.850;21.698;2023-02-20T15:00:37;98738.71;;;4.81;87.10
50310;BME280;36207;51.850;21.698;2023-02-20T15:03:27;98727.78;;;4.84;87.01
50310;BME280;36207;51.850;21.698;2023-02-20T15:05:54;98722.67;;;4.87;86.77